KWYS/WYS METAR and TAF weather

Enter ICAO airport designator
Station Type Date Time Source
KWYS METAR 2019/08/22 20:50 UTC NOAA

KWYS 222050Z AUTO 23011KT 10SM SCT085 22/02 A3001 RMK AO2


Station Type Date Time Source
KWYS Decoded METAR 2019/08/22 20:50 UTC NOAA

Station name not available
Aug 22, 2019 - 04:50 PM EDT / 2019.08.22 2050 UTC
Wind: from the SW (230 degrees) at 13 MPH (11 KT):0
Visibility: 10 mile(s):0
Sky conditions: partly cloudy
Temperature: 71 F (22 C)
Dew Point: 35 F (2 C)
Relative Humidity: 26%
Pressure (altimeter): 30.01 in. Hg (1016 hPa)
ob: KWYS 222050Z AUTO 23011KT 10SM SCT085 22/02 A3001 RMK AO2
cycle: 21

Station Type Date Time Source
KWYS TAF 2019/08/22 18:47 UTC NOAA

TAF KWYS 221747Z 2218/2318 VRB04KT P6SM VCSH BKN070 BKN110
TEMPO 2222/2224 4SM -TSRA OVC035CB
FM230600 VRB06KT P6SM BKN100

Example: see airport list